Time;durP1;ratioP1;P1;durP2;ratioP2;P2;SDS_P1;SDS_P2;PMS_P1;PMS_P2;Temp;Humidity;BMP_temperature;BMP_pressure;BME280_temperature;BME280_humidity;BME280_pressure;Samples;Min_cycle;Max_cycle;Signal;HPM_P1;HPM_P2
2021/11/26 00:01:41;;;;;;;;;;;;;;;7.86;100.00;98145.97;5073319;28;19951;-81
2021/11/26 00:04:09;;;;;;;;;;;;;;;7.66;100.00;98131.25;5060114;28;19947;-80
2021/11/26 00:06:36;;;;;;;;;;;;;;;7.54;100.00;98129.09;5058026;28;20004;-80
2021/11/26 00:09:03;;;;;;;;;;;;;;;7.42;100.00;98113.84;5073741;28;19930;-80
2021/11/26 00:11:31;;;;;;;;;;;;;;;7.64;100.00;98103.88;5073984;28;19947;-81
2021/11/26 00:14:06;;;;;;;;;;;;;;;7.40;100.00;98088.47;5056189;28;20368;-80
2021/11/26 00:16:37;;;;;;;;;;;;;;;7.14;100.00;98078.22;5056388;28;19938;-80
2021/11/26 00:19:06;;;;;;;;;;;;;;;7.00;100.00;98061.81;5056290;28;19925;-81
2021/11/26 00:21:34;;;;;;;;;;;;;;;7.12;100.00;98050.88;5055901;28;19925;-80
2021/11/26 00:24:02;;;;;;;;;;;;;;;7.02;100.00;98056.63;5039853;28;19924;-80
2021/11/26 00:26:29;;;;;;;;;;;;;;;6.52;100.00;98033.69;5056046;28;20429;-80
2021/11/26 00:28:56;;;;;;;;;;;;;;;6.62;100.00;98016.09;5055768;28;19932;-80
2021/11/26 00:31:23;;;;;;;;;;;;;;;6.96;100.00;98013.88;5039387;28;20051;-80
2021/11/26 00:33:50;;;;;;;;;;;;;;;6.79;100.00;97998.31;5093692;28;19931;-80
2021/11/26 00:36:18;;;;;;;;;;;;;;;6.71;100.00;97986.56;5060176;28;19925;-80
2021/11/26 00:38:45;;;;;;;;;;;;;;;6.98;100.00;97978.91;5078081;28;19924;-80
2021/11/26 00:41:12;;;;;;;;;;;;;;;6.73;100.00;97975.03;5077668;28;20394;-80
2021/11/26 00:43:39;;;;;;;;;;;;;;;6.31;100.00;97961.91;5060024;28;20275;-80
2021/11/26 00:46:06;;;;;;;;;;;;;;;6.61;100.00;97942.34;5093331;28;19976;-80
2021/11/26 00:48:33;;;;;;;;;;;;;;;6.75;100.00;97945.66;5043438;28;20041;-80
2021/11/26 00:51:01;;;;;;;;;;;;;;;6.70;100.00;97928.69;5093546;28;19930;-80
2021/11/26 00:53:28;;;;;;;;;;;;;;;6.74;100.00;97918.31;5060151;28;19964;-80
2021/11/26 00:55:55;;;;;;;;;;;;;;;6.75;100.00;97892.13;5059695;28;19994;-80
2021/11/26 00:58:22;;;;;;;;;;;;;;;6.52;100.00;97886.63;5092751;28;20027;-80
2021/11/26 01:00:49;;;;;;;;;;;;;;;6.48;100.00;97889.44;5077744;28;20010;-80
2021/11/26 01:03:16;;;;;;;;;;;;;;;6.59;100.00;97861.50;5059536;28;20402;-80
2021/11/26 01:05:43;;;;;;;;;;;;;;;6.68;100.00;97864.53;5059615;28;20372;-80
2021/11/26 01:08:10;;;;;;;;;;;;;;;6.66;100.00;97861.38;5077446;28;19971;-80
2021/11/26 01:10:37;;;;;;;;;;;;;;;6.61;100.00;97845.22;5059564;28;20352;-81
2021/11/26 01:13:04;;;;;;;;;;;;;;;6.71;100.00;97825.56;5077150;28;19948;-80
2021/11/26 01:15:32;;;;;;;;;;;;;;;6.71;100.00;97819.25;5026242;28;19924;-80
2021/11/26 01:17:59;;;;;;;;;;;;;;;7.00;100.00;97820.19;5077372;28;19931;-80
2021/11/26 01:20:29;;;;;;;;;;;;;;;6.77;100.00;97809.97;5077014;28;19925;-80
2021/11/26 01:22:57;;;;;;;;;;;;;;;7.11;100.00;97799.34;5077186;28;20019;-80
2021/11/26 01:25:24;;;;;;;;;;;;;;;6.83;100.00;97788.06;5092698;28;20055;-80
2021/11/26 01:27:51;;;;;;;;;;;;;;;6.67;100.00;97785.22;5077179;28;19970;-80
2021/11/26 01:30:26;;;;;;;;;;;;;;;6.89;100.00;97764.13;5059196;28;19947;-80
2021/11/26 01:32:54;;;;;;;;;;;;;;;6.77;100.00;97767.56;5075789;28;19928;-80
2021/11/26 01:35:21;;;;;;;;;;;;;;;6.77;100.00;97759.25;5059151;28;20306;-80
2021/11/26 01:37:48;;;;;;;;;;;;;;;6.92;100.00;97746.63;5059240;28;20350;-80
2021/11/26 01:40:16;;;;;;;;;;;;;;;6.91;100.00;97739.47;5058780;28;19964;-80
2021/11/26 01:42:43;;;;;;;;;;;;;;;6.92;100.00;97746.63;5058725;28;19928;-81
2021/11/26 01:45:10;;;;;;;;;;;;;;;7.00;100.00;97748.00;5075183;28;20019;-80
2021/11/26 01:47:37;;;;;;;;;;;;;;;6.88;100.00;97748.66;5042382;28;19924;-80
2021/11/26 01:50:06;;;;;;;;;;;;;;;7.13;100.00;97733.00;5041996;28;19971;-80
2021/11/26 01:52:33;;;;;;;;;;;;;;;7.22;100.00;97724.84;5076444;28;19929;-80
2021/11/26 01:55:02;;;;;;;;;;;;;;;7.22;100.00;97710.19;5058839;28;20291;-80
2021/11/26 01:57:30;;;;;;;;;;;;;;;7.37;100.00;97708.63;5076454;28;20416;-80
2021/11/26 01:59:57;;;;;;;;;;;;;;;7.18;100.00;97688.06;5058545;28;20034;-80
2021/11/26 02:02:24;;;;;;;;;;;;;;;7.54;100.00;97679.63;5075080;28;19955;-80
2021/11/26 02:04:51;;;;;;;;;;;;;;;7.50;100.00;97678.91;5058266;28;19928;-80
2021/11/26 02:07:18;;;;;;;;;;;;;;;7.48;100.00;97658.34;5058460;28;19932;-80
2021/11/26 02:09:45;;;;;;;;;;;;;;;6.98;100.00;97662.34;5041601;28;19968;-80
2021/11/26 02:12:12;;;;;;;;;;;;;;;7.16;100.00;97651.59;5076067;28;19978;-80
2021/11/26 02:14:39;;;;;;;;;;;;;;;7.54;100.00;97637.94;5058499;28;19924;-80
2021/11/26 02:17:07;;;;;;;;;;;;;;;7.51;100.00;97629.69;5091910;28;19925;-80
2021/11/26 02:19:34;;;;;;;;;;;;;;;7.25;100.00;97614.88;5091590;28;19924;-80
2021/11/26 02:22:02;;;;;;;;;;;;;;;7.38;100.00;97607.38;5075971;28;20035;-80
2021/11/26 02:24:29;;;;;;;;;;;;;;;7.33;100.00;97589.25;5075720;28;19931;-80
2021/11/26 02:26:56;;;;;;;;;;;;;;;7.34;100.00;97579.72;5058132;28;19924;-80
2021/11/26 02:29:24;;;;;;;;;;;;;;;7.32;100.00;97575.78;5091264;28;19971;-80
2021/11/26 02:31:51;;;;;;;;;;;;;;;7.74;100.00;97562.72;5074447;28;19931;-80
2021/11/26 02:34:20;;;;;;;;;;;;;;;7.34;100.00;97545.59;5058289;28;19924;-80
2021/11/26 02:36:47;;;;;;;;;;;;;;;7.10;100.00;97552.59;5074155;28;19970;-80
2021/11/26 02:39:14;;;;;;;;;;;;;;;7.02;100.00;97545.63;5075295;28;20388;-79
2021/11/26 02:41:42;;;;;;;;;;;;;;;7.49;100.00;97540.41;5075591;28;19924;-80
2021/11/26 02:44:09;;;;;;;;;;;;;;;7.49;100.00;97535.63;5057846;28;19925;-80
2021/11/26 02:46:36;;;;;;;;;;;;;;;7.39;100.00;97520.06;5040992;28;19924;-81
2021/11/26 02:49:04;;;;;;;;;;;;;;;7.50;100.00;97514.19;5057699;28;19936;-80
2021/11/26 02:51:32;;;;;;;;;;;;;;;7.30;100.00;97505.97;5075305;28;19974;-80
2021/11/26 02:53:59;;;;;;;;;;;;;;;7.65;100.00;97507.75;5073916;28;19924;-80
2021/11/26 02:56:27;;;;;;;;;;;;;;;7.71;100.00;97485.78;5073402;28;19925;-80
2021/11/26 02:58:57;;;;;;;;;;;;;;;7.58;100.00;97482.97;5057621;28;20293;-80
2021/11/26 03:01:24;;;;;;;;;;;;;;;7.66;100.00;97478.75;5041025;28;19925;-80
2021/11/26 03:03:52;;;;;;;;;;;;;;;7.40;100.00;97466.03;5073965;28;20278;-80
2021/11/26 03:06:20;;;;;;;;;;;;;;;7.69;100.00;97452.88;5041177;28;19925;-80
2021/11/26 03:08:47;;;;;;;;;;;;;;;7.71;100.00;97446.84;5073586;28;19924;-80
2021/11/26 03:11:14;;;;;;;;;;;;;;;7.52;100.00;97426.38;5074981;28;19924;-80
2021/11/26 03:13:42;;;;;;;;;;;;;;;7.91;100.00;97431.50;5057065;28;20027;-80
2021/11/26 03:16:09;;;;;;;;;;;;;;;7.91;100.00;97417.63;5074991;28;19924;-80
2021/11/26 03:18:37;;;;;;;;;;;;;;;7.78;100.00;97400.16;5074926;28;20417;-80
2021/11/26 03:21:05;;;;;;;;;;;;;;;7.63;100.00;97389.91;5057286;28;19924;-80
2021/11/26 03:23:32;;;;;;;;;;;;;;;7.82;100.00;97388.91;5056735;28;19928;-80
2021/11/26 03:25:59;;;;;;;;;;;;;;;7.91;100.00;97377.91;5074805;28;19981;-80
2021/11/26 03:28:26;;;;;;;;;;;;;;;7.80;100.00;97366.34;5074876;28;19930;-80
2021/11/26 03:30:53;;;;;;;;;;;;;;;8.01;100.00;97360.84;5090117;28;19924;-79
2021/11/26 03:33:20;;;;;;;;;;;;;;;7.82;100.00;97348.00;5073126;28;19978;-80
2021/11/26 03:35:48;;;;;;;;;;;;;;;8.23;100.00;97347.84;5073426;28;20318;-80
2021/11/26 03:38:15;;;;;;;;;;;;;;;7.89;100.00;97339.41;5039911;28;19925;-80
2021/11/26 03:40:42;;;;;;;;;;;;;;;8.18;100.00;97328.91;5074506;28;20257;-80
2021/11/26 03:43:09;;;;;;;;;;;;;;;7.98;100.00;97313.72;5056629;28;19924;-80
2021/11/26 03:45:37;;;;;;;;;;;;;;;7.86;100.00;97315.28;5074328;28;19928;-80
2021/11/26 03:48:04;;;;;;;;;;;;;;;7.89;100.00;97308.06;5056893;28;19932;-80
2021/11/26 03:50:31;;;;;;;;;;;;;;;7.90;100.00;97296.50;5074213;28;19955;-80
2021/11/26 03:52:58;;;;;;;;;;;;;;;7.89;100.00;97285.81;5056734;28;19970;-80
2021/11/26 03:55:27;;;;;;;;;;;;;;;7.86;100.00;97270.03;5072936;28;19924;-80
2021/11/26 03:57:55;;;;;;;;;;;;;;;7.85;100.00;97263.69;5072978;28;19956;-80
2021/11/26 04:00:23;;;;;;;;;;;;;;;8.06;100.00;97249.06;5089615;28;20334;-80
2021/11/26 04:02:50;;;;;;;;;;;;;;;7.77;100.00;97240.13;5056616;28;19978;-80
2021/11/26 04:05:17;;;;;;;;;;;;;;;7.86;100.00;97229.09;5055930;28;19947;-80
2021/11/26 04:07:45;;;;;;;;;;;;;;;7.99;100.00;97213.16;5073276;28;19928;-80
2021/11/26 04:10:12;;;;;;;;;;;;;;;7.96;100.00;97197.38;5056203;28;19925;-80
2021/11/26 04:12:40;;;;;;;;;;;;;;;8.10;100.00;97174.63;5056450;28;19929;-80
2021/11/26 04:15:08;;;;;;;;;;;;;;;8.28;100.00;97172.00;5056411;28;19925;-80
2021/11/26 04:17:35;;;;;;;;;;;;;;;8.27;100.00;97150.19;5089538;28;19935;-80
2021/11/26 04:20:07;;;;;;;;;;;;;;;8.10;100.00;97149.59;5074079;28;19956;-80
2021/11/26 04:22:34;;;;;;;;;;;;;;;8.24;100.00;97140.75;5074141;28;20001;-80
2021/11/26 04:25:01;;;;;;;;;;;;;;;8.43;100.00;97141.63;5089861;28;20011;-80
2021/11/26 04:27:28;;;;;;;;;;;;;;;8.17;100.00;97124.28;5073962;28;19925;-80
2021/11/26 04:29:55;;;;;;;;;;;;;;;8.24;100.00;97117.72;5055781;28;20453;-80
2021/11/26 04:32:22;;;;;;;;;;;;;;;8.26;100.00;97098.56;5056137;28;19931;-80
2021/11/26 04:34:50;;;;;;;;;;;;;;;8.29;100.00;97098.44;5056111;28;19924;-80
2021/11/26 04:37:17;;;;;;;;;;;;;;;8.37;100.00;97082.25;5056100;28;19990;-80
2021/11/26 04:39:44;;;;;;;;;;;;;;;8.16;100.00;97063.56;5039399;28;20003;-80
2021/11/26 04:42:11;;;;;;;;;;;;;;;8.15;100.00;97076.66;5073870;28;20020;-80
2021/11/26 04:44:38;;;;;;;;;;;;;;;8.33;100.00;97060.09;5089488;28;19925;-80
2021/11/26 04:47:05;;;;;;;;;;;;;;;8.62;100.00;97043.84;5074002;28;19925;-80
2021/11/26 04:49:32;;;;;;;;;;;;;;;8.39;100.00;97036.00;5088563;28;20328;-80
2021/11/26 04:51:59;;;;;;;;;;;;;;;8.58;100.00;97017.38;5055774;28;20330;-80
2021/11/26 04:54:26;;;;;;;;;;;;;;;8.42;100.00;97012.09;5056368;28;19931;-80
2021/11/26 04:56:53;;;;;;;;;;;;;;;8.36;100.00;97009.09;5056481;28;20263;-80
2021/11/26 04:59:20;;;;;;;;;;;;;;;8.57;100.00;97001.94;5073883;28;20402;-80
2021/11/26 05:01:47;;;;;;;;;;;;;;;8.41;100.00;96980.69;5089389;28;20271;-80
2021/11/26 05:04:15;;;;;;;;;;;;;;;8.62;100.00;96976.25;5055598;28;19924;-80
2021/11/26 05:06:42;;;;;;;;;;;;;;;8.66;100.00;96965.78;5073749;28;19925;-80
2021/11/26 05:09:10;;;;;;;;;;;;;;;8.39;100.00;96955.31;5089285;28;19978;-80
2021/11/26 05:11:38;;;;;;;;;;;;;;;8.39;100.00;96949.75;5039511;28;20248;-80
2021/11/26 05:14:06;;;;;;;;;;;;;;;8.03;100.00;96952.38;5089127;28;19974;-80
2021/11/26 05:16:34;;;;;;;;;;;;;;;8.56;100.00;96933.56;5039246;28;20272;-80
2021/11/26 05:19:01;;;;;;;;;;;;;;;8.65;100.00;96928.78;5075876;28;20275;-80
2021/11/26 05:21:28;;;;;;;;;;;;;;;9.02;100.00;96901.75;5077276;28;19931;-80
2021/11/26 05:23:55;;;;;;;;;;;;;;;8.65;100.00;96881.47;5092797;28;19924;-80
2021/11/26 05:26:22;;;;;;;;;;;;;;;8.40;100.00;96884.53;5043093;28;19924;-79
2021/11/26 05:28:49;;;;;;;;;;;;;;;8.61;100.00;96866.94;5075957;28;20363;-80
2021/11/26 05:31:16;;;;;;;;;;;;;;;8.65;100.00;96852.84;5075527;28;19924;-80
2021/11/26 05:33:43;;;;;;;;;;;;;;;8.78;100.00;96850.72;5076707;28;19970;-80
2021/11/26 05:36:11;;;;;;;;;;;;;;;8.92;100.00;96839.72;5092655;28;19925;-80
2021/11/26 05:38:38;;;;;;;;;;;;;;;8.34;100.00;96830.75;5042284;28;20369;-80
2021/11/26 05:41:04;;;;;;;;;;;;;;;8.46;100.00;96821.47;5092803;28;20122;-80
2021/11/26 05:43:32;;;;;;;;;;;;;;;8.75;100.00;96827.34;5076956;28;19924;-80
2021/11/26 05:45:59;;;;;;;;;;;;;;;8.59;100.00;96816.53;5058745;28;20370;-80
2021/11/26 05:48:25;;;;;;;;;;;;;;;8.84;100.00;96813.44;5075300;28;19924;-80
2021/11/26 05:50:52;;;;;;;;;;;;;;;8.67;100.00;96784.38;5058955;28;19925;-80
2021/11/26 05:53:19;;;;;;;;;;;;;;;8.91;100.00;96784.47;5092364;28;19967;-80
2021/11/26 05:55:46;;;;;;;;;;;;;;;8.70;100.00;96783.44;5059052;28;19928;-80
2021/11/26 05:58:13;;;;;;;;;;;;;;;9.00;100.00;96757.41;5042108;28;19967;-79
2021/11/26 06:00:40;;;;;;;;;;;;;;;8.74;100.00;96744.28;5058748;28;19930;-80
2021/11/26 06:03:08;;;;;;;;;;;;;;;8.81;100.00;96728.06;5041967;28;20037;-80
2021/11/26 06:05:35;;;;;;;;;;;;;;;8.86;100.00;96741.31;5058646;28;20023;-80
2021/11/26 06:08:02;;;;;;;;;;;;;;;8.85;100.00;96744.59;5092132;28;19986;-79
2021/11/26 06:10:30;;;;;;;;;;;;;;;8.94;100.00;96730.63;5076776;28;19924;-80
2021/11/26 06:12:57;;;;;;;;;;;;;;;8.98;100.00;96729.22;5058422;28;19933;-80
2021/11/26 06:15:24;;;;;;;;;;;;;;;9.41;100.00;96714.06;5075190;28;19935;-80
2021/11/26 06:17:52;;;;;;;;;;;;;;;9.32;100.00;96716.09;5058360;28;19928;-80
2021/11/26 06:20:20;;;;;;;;;;;;;;;9.02;100.00;96702.00;5058249;28;19924;-80
2021/11/26 06:22:47;;;;;;;;;;;;;;;9.25;100.00;96671.88;5041468;28;19931;-80
2021/11/26 06:25:16;;;;;;;;;;;;;;;8.86;100.00;96691.22;5058297;28;19924;-80
2021/11/26 06:27:44;;;;;;;;;;;;;;;9.09;100.00;96720.38;5076121;28;19971;-80
2021/11/26 06:30:12;;;;;;;;;;;;;;;9.01;100.00;96702.47;5074708;28;20094;-80
2021/11/26 06:32:41;;;;;;;;;;;;;;;8.79;100.00;96733.31;5058549;28;20274;-80
2021/11/26 06:35:09;;;;;;;;;;;;;;;8.88;100.00;96722.16;5075828;28;19925;-80
2021/11/26 06:37:38;;;;;;;;;;;;;;;9.11;100.00;96715.91;5075834;28;19925;-79
2021/11/26 06:40:06;;;;;;;;;;;;;;;9.34;100.00;96708.84;5091467;28;20393;-79
2021/11/26 06:42:33;;;;;;;;;;;;;;;9.52;100.00;96705.19;5091283;28;20013;-80
2021/11/26 06:45:00;;;;;;;;;;;;;;;9.07;100.00;96701.34;5073820;28;19924;-80
2021/11/26 06:47:28;;;;;;;;;;;;;;;9.29;100.00;96672.47;5075480;28;19969;-80
2021/11/26 06:49:55;;;;;;;;;;;;;;;9.33;100.00;96659.91;5075590;28;19935;-80
2021/11/26 06:52:22;;;;;;;;;;;;;;;9.33;100.00;96668.25;5074311;28;19924;-80
2021/11/26 06:54:48;;;;;;;;;;;;;;;9.35;100.00;96648.28;5040864;28;19924;-80
2021/11/26 06:57:15;;;;;;;;;;;;;;;9.14;100.00;96667.59;5040835;28;20023;-79
2021/11/26 06:59:43;;;;;;;;;;;;;;;9.37;100.00;96656.97;5075023;28;19982;-80
2021/11/26 07:02:10;;;;;;;;;;;;;;;9.58;100.00;96678.97;5024735;28;20408;-79
2021/11/26 07:04:38;;;;;;;;;;;;;;;9.77;100.00;96657.34;5040934;28;20344;-80
2021/11/26 07:07:05;;;;;;;;;;;;;;;9.24;100.00;96659.94;5057494;28;19994;-80
2021/11/26 07:09:32;;;;;;;;;;;;;;;9.68;100.00;96662.97;5040745;28;19928;-80
2021/11/26 07:11:59;;;;;;;;;;;;;;;9.41;100.00;96652.75;5074875;28;20467;-80
2021/11/26 07:14:38;;;;;;;;;;;;;;;9.65;100.00;96655.56;5057350;28;19925;-80
2021/11/26 07:17:06;;;;;;;;;;;;;;;9.58;100.00;96662.25;5040535;28;19970;-79
2021/11/26 07:19:33;;;;;;;;;;;;;;;9.18;100.00;96639.56;5057168;28;19931;-79
2021/11/26 07:22:01;;;;;;;;;;;;;;;9.46;100.00;96648.53;5090726;28;20058;-79
2021/11/26 07:24:28;;;;;;;;;;;;;;;9.54;100.00;96649.75;5023891;28;19931;-79
2021/11/26 07:26:54;;;;;;;;;;;;;;;9.69;100.00;96650.56;5074604;28;20023;-79
2021/11/26 07:29:22;;;;;;;;;;;;;;;9.83;100.00;96647.06;5074483;28;19924;-81
2021/11/26 07:31:48;;;;;;;;;;;;;;;9.88;100.00;96640.81;5074737;28;19928;-80
2021/11/26 07:34:16;;;;;;;;;;;;;;;9.75;100.00;96632.72;5057046;28;19928;-80
2021/11/26 07:36:43;;;;;;;;;;;;;;;9.38;100.00;96613.91;5057289;28;19931;-81
2021/11/26 07:39:10;;;;;;;;;;;;;;;9.33;100.00;96612.53;5039852;28;19924;-80
2021/11/26 07:41:39;;;;;;;;;;;;;;;9.05;100.00;96578.53;5090309;28;19924;-80
2021/11/26 07:44:06;;;;;;;;;;;;;;;8.90;100.00;96585.25;5056489;28;19925;-82
2021/11/26 07:46:33;;;;;;;;;;;;;;;9.35;100.00;96592.56;5056795;28;20275;-79
2021/11/26 07:49:01;;;;;;;;;;;;;;;9.10;100.00;96611.28;5074336;28;20013;-80
2021/11/26 07:51:28;;;;;;;;;;;;;;;8.87;100.00;96581.41;5077734;28;19974;-79
2021/11/26 07:53:56;;;;;;;;;;;;;;;9.23;100.00;96627.00;5073782;28;19924;-79
2021/11/26 07:56:23;;;;;;;;;;;;;;;8.83;100.00;96591.91;5059632;28;20375;-80
2021/11/26 07:58:50;;;;;;;;;;;;;;;9.06;100.00;96593.97;5067475;28;19978;-80
2021/11/26 08:01:17;;;;;;;;;;;;;;;8.87;100.00;96581.41;5092394;28;19963;-79
2021/11/26 08:03:44;;;;;;;;;;;;;;;8.74;100.00;96611.44;5056785;28;19935;-79
2021/11/26 08:06:12;;;;;;;;;;;;;;;8.93;100.00;96621.28;5043906;28;19938;-79
2021/11/26 08:08:39;;;;;;;;;;;;;;;8.90;100.00;96618.66;5053310;28;19929;-80
2021/11/26 08:11:07;;;;;;;;;;;;;;;8.76;100.00;96620.09;5056269;28;20380;-79
2021/11/26 08:13:35;;;;;;;;;;;;;;;8.79;100.00;96621.94;5067093;28;19977;-80
2021/11/26 08:16:06;;;;;;;;;;;;;;;8.68;100.00;96627.25;5056232;28;19925;-80
2021/11/26 08:18:34;;;;;;;;;;;;;;;8.79;100.00;96627.53;5052622;28;19931;-80
2021/11/26 08:21:02;;;;;;;;;;;;;;;8.88;100.00;96633.06;5062781;28;19971;-80
2021/11/26 08:23:29;;;;;;;;;;;;;;;8.64;100.00;96629.44;5075172;28;19961;-80
2021/11/26 08:25:58;;;;;;;;;;;;;;;8.52;100.00;96621.25;5066602;28;20016;-80
2021/11/26 08:28:29;;;;;;;;;;;;;;;8.59;100.00;96612.56;5074072;28;20042;-80
2021/11/26 08:30:56;;;;;;;;;;;;;;;8.51;100.00;96591.91;5072528;28;19925;-80
2021/11/26 08:33:24;;;;;;;;;;;;;;;8.82;100.00;96601.53;5039610;28;20011;-80
2021/11/26 08:35:52;;;;;;;;;;;;;;;8.59;100.00;96605.00;5055948;28;20426;-79
2021/11/26 08:38:19;;;;;;;;;;;;;;;8.74;100.00;96600.31;5056180;28;19925;-80
2021/11/26 08:40:46;;;;;;;;;;;;;;;8.58;100.00;96597.91;5082569;28;19928;-80
2021/11/26 08:43:13;;;;;;;;;;;;;;;8.41;100.00;96571.66;5093886;28;20321;-80
2021/11/26 08:45:40;;;;;;;;;;;;;;;8.11;100.00;96603.25;5058984;28;20011;-80
2021/11/26 08:48:07;;;;;;;;;;;;;;;8.28;100.00;96612.84;5076003;28;19924;-80
2021/11/26 08:50:35;;;;;;;;;;;;;;;8.46;100.00;96612.78;5077106;28;19998;-80
2021/11/26 08:53:04;;;;;;;;;;;;;;;8.31;100.00;96611.91;5056649;28;19924;-80
2021/11/26 08:55:32;;;;;;;;;;;;;;;8.32;100.00;96624.56;5059342;28;19967;-80
2021/11/26 08:58:00;;;;;;;;;;;;;;;8.41;100.00;96585.59;5090416;28;19931;-81
2021/11/26 09:00:30;;;;;;;;;;;;;;;8.41;100.00;96605.06;5097655;28;19924;-81
2021/11/26 09:02:59;;;;;;;;;;;;;;;8.22;100.00;96611.91;5079712;28;19928;-80
2021/11/26 09:05:26;;;;;;;;;;;;;;;8.37;100.00;96601.69;5079897;28;20043;-80
2021/11/26 09:07:59;;;;;;;;;;;;;;;8.50;100.00;96618.94;5063279;28;19924;-80
2021/11/26 09:10:32;;;;;;;;;;;;;;;8.56;100.00;96625.41;5063159;28;19924;-78
2021/11/26 09:12:59;;;;;;;;;;;;;;;8.75;100.00;96628.94;5097112;28;19924;-76
2021/11/26 09:15:26;;;;;;;;;;;;;;;9.03;100.00;96642.25;5079001;28;19924;-77
2021/11/26 09:17:53;;;;;;;;;;;;;;;8.63;100.00;96600.03;5078853;28;19959;-77
2021/11/26 09:20:20;;;;;;;;;;;;;;;8.75;100.00;96618.53;5078686;28;19931;-77
2021/11/26 09:22:48;;;;;;;;;;;;;;;8.93;100.00;96609.34;5071723;28;20394;-77
2021/11/26 09:25:17;;;;;;;;;;;;;;;8.95;100.00;96596.50;5068775;28;19978;-76
2021/11/26 09:27:45;;;;;;;;;;;;;;;9.35;100.00;96595.34;5079011;28;20373;-77
2021/11/26 09:30:14;;;;;;;;;;;;;;;9.21;100.00;96587.72;5090338;28;19978;-78
2021/11/26 09:32:42;;;;;;;;;;;;;;;8.99;100.00;96582.41;5069791;28;19924;-77
2021/11/26 09:35:09;;;;;;;;;;;;;;;9.01;100.00;96580.69;5042027;28;20262;-77
2021/11/26 09:37:36;;;;;;;;;;;;;;;9.19;100.00;96565.91;5074212;28;19928;-77
2021/11/26 09:40:05;;;;;;;;;;;;;;;8.91;100.00;96576.41;5078440;28;19928;-77
2021/11/26 09:42:32;;;;;;;;;;;;;;;9.16;100.00;96570.38;5064277;28;19924;-77
2021/11/26 09:45:00;;;;;;;;;;;;;;;8.65;100.00;96558.59;5044334;28;19981;-79
2021/11/26 09:47:29;;;;;;;;;;;;;;;8.87;100.00;96575.81;5050631;28;19955;-77
2021/11/26 09:49:56;;;;;;;;;;;;;;;8.86;100.00;96568.69;5056543;28;20137;-77
2021/11/26 09:52:23;;;;;;;;;;;;;;;8.97;100.00;96563.38;5053519;28;20425;-77
2021/11/26 09:54:50;;;;;;;;;;;;;;;9.00;100.00;96562.44;5074015;28;19978;-77
2021/11/26 09:57:17;;;;;;;;;;;;;;;8.89;100.00;96550.28;5060570;28;19924;-77
2021/11/26 09:59:45;;;;;;;;;;;;;;;8.79;100.00;96548.78;5076117;28;19936;-77
2021/11/26 10:02:14;;;;;;;;;;;;;;;8.91;100.00;96537.44;5069152;28;19931;-77
2021/11/26 10:04:41;;;;;;;;;;;;;;;8.61;100.00;96555.22;5053190;28;19973;-77
2021/11/26 10:07:08;;;;;;;;;;;;;;;8.77;100.00;96543.69;5053369;28;20296;-77
2021/11/26 10:09:38;;;;;;;;;;;;;;;8.72;100.00;96557.50;5064031;28;19924;-78
2021/11/26 10:12:09;;;;;;;;;;;;;;;8.88;100.00;96569.00;5078752;28;19974;-77
2021/11/26 10:14:38;;;;;;;;;;;;;;;8.96;100.00;96570.22;5053444;28;20089;-78
2021/11/26 10:17:08;;;;;;;;;;;;;;;8.89;100.00;96567.00;5053504;28;19928;-76
2021/11/26 10:19:36;;;;;;;;;;;;;;;9.19;100.00;96566.66;5070165;28;19924;-77
2021/11/26 10:22:18;;;;;;;;;;;;;;;9.13;100.00;96554.63;5052482;28;19931;-78
2021/11/26 10:25:00;;;;;;;;;;;;;;;9.58;100.00;96552.75;5052549;28;19924;-77
2021/11/26 10:27:35;;;;;;;;;;;;;;;9.30;100.00;96557.00;5054419;28;19924;-77
2021/11/26 10:30:09;;;;;;;;;;;;;;;9.14;100.00;96560.97;5055503;28;19944;-78
2021/11/26 10:32:36;;;;;;;;;;;;;;;9.25;100.00;96550.06;5077627;28;19924;-78
2021/11/26 10:35:03;;;;;;;;;;;;;;;9.37;100.00;96553.84;5055783;28;19931;-78
2021/11/26 10:37:34;;;;;;;;;;;;;;;9.11;100.00;96578.63;5090552;28;20034;-78
2021/11/26 10:40:16;;;;;;;;;;;;;;;8.35;100.00;96551.28;5076705;28;19931;-77
2021/11/26 10:42:44;;;;;;;;;;;;;;;8.36;100.00;96536.13;5077152;28;19924;-77
2021/11/26 10:45:18;;;;;;;;;;;;;;;8.52;100.00;96538.56;5057677;28;19948;-77
2021/11/26 10:47:54;;;;;;;;;;;;;;;8.78;100.00;96539.66;5077105;28;19993;-78
2021/11/26 11:01:12;;;;;;;;;;;;;;;8.72;100.00;96518.53;5069764;28;19967;-78
2021/11/26 11:03:40;;;;;;;;;;;;;;;8.47;100.00;96516.16;5086111;28;19924;-77
2021/11/26 11:06:18;;;;;;;;;;;;;;;8.87;100.00;96509.00;5085532;28;19931;-77
2021/11/26 11:08:45;;;;;;;;;;;;;;;8.76;100.00;96505.97;5036051;28;20333;-77
2021/11/26 11:11:12;;;;;;;;;;;;;;;8.96;100.00;96486.66;5069884;28;20011;-77
2021/11/26 11:13:39;;;;;;;;;;;;;;;8.86;100.00;96487.97;5052638;28;19925;-78
2021/11/26 11:16:08;;;;;;;;;;;;;;;8.96;100.00;96480.31;5052305;28;20021;-78
2021/11/26 11:18:37;;;;;;;;;;;;;;;8.79;100.00;96479.19;5070264;28;19931;-77
2021/11/26 11:21:05;;;;;;;;;;;;;;;8.82;100.00;96473.44;5070192;28;19924;-77
2021/11/26 11:23:32;;;;;;;;;;;;;;;8.83;100.00;96474.22;5071766;28;19924;-77
2021/11/26 11:25:59;;;;;;;;;;;;;;;9.11;100.00;96476.34;5088505;28;19928;-77
2021/11/26 11:28:27;;;;;;;;;;;;;;;9.02;100.00;96470.84;5073561;28;19928;-77
2021/11/26 11:30:54;;;;;;;;;;;;;;;9.10;100.00;96460.88;5056285;28;19975;-76
2021/11/26 11:33:21;;;;;;;;;;;;;;;9.30;100.00;96463.03;5072149;28;20011;-76
2021/11/26 11:35:49;;;;;;;;;;;;;;;9.14;100.00;96467.03;5073392;28;19928;-76
2021/11/26 11:38:17;;;;;;;;;;;;;;;9.18;100.00;96460.53;5055874;28;19924;-75
2021/11/26 11:40:46;;;;;;;;;;;;;;;9.53;100.00;96455.88;5056319;28;19959;-75
2021/11/26 11:43:15;;;;;;;;;;;;;;;9.18;100.00;96449.38;5040020;28;19925;-75
2021/11/26 11:46:02;;;;;;;;;;;;;;;9.14;100.00;96467.03;5056184;28;19924;-75
2021/11/26 11:48:31;;;;;;;;;;;;;;;9.33;100.00;96475.25;5039614;28;19924;-75
2021/11/26 11:50:58;;;;;;;;;;;;;;;8.76;100.00;96471.78;5055919;28;19930;-75
2021/11/26 11:53:33;;;;;;;;;;;;;;;8.61;100.00;96471.72;5039480;28;19936;-75
2021/11/26 11:56:08;;;;;;;;;;;;;;;8.79;100.00;96474.41;5073933;28;19925;-75
2021/11/26 11:59:04;;;;;;;;;;;;;;;8.87;100.00;96446.97;5073941;28;20273;-75
2021/11/26 12:01:39;;;;;;;;;;;;;;;8.85;100.00;96455.81;5039141;28;19924;-75
2021/11/26 12:07:48;;;;;;;;;;;;;;;8.03;100.00;96479.66;5073732;28;19973;-75
2021/11/26 12:10:16;;;;;;;;;;;;;;;8.46;100.00;96495.91;5055794;28;20017;-75
2021/11/26 12:12:48;;;;;;;;;;;;;;;8.68;100.00;96495.63;5072368;28;19972;-75
2021/11/26 12:15:32;;;;;;;;;;;;;;;8.76;100.00;96499.63;5055985;28;19928;-75
2021/11/26 12:17:59;;;;;;;;;;;;;;;8.31;100.00;96506.19;5089076;28;19979;-75
2021/11/26 12:20:27;;;;;;;;;;;;;;;8.35;100.00;96500.44;5055728;28;19930;-75
2021/11/26 12:22:58;;;;;;;;;;;;;;;8.78;100.00;96500.69;5089259;28;20081;-76
2021/11/26 12:25:39;;;;;;;;;;;;;;;8.53;100.00;96490.00;5073458;28;19924;-77
2021/11/26 12:28:10;;;;;;;;;;;;;;;8.97;100.00;96493.00;5074499;28;20335;-77
2021/11/26 12:30:40;;;;;;;;;;;;;;;9.67;100.00;96477.41;5097446;28;20019;-77
2021/11/26 12:33:20;;;;;;;;;;;;;;;9.42;100.00;96461.25;5059192;28;19986;-77
2021/11/26 12:35:58;;;;;;;;;;;;;;;9.43;100.00;96471.13;5077263;28;20376;-76
2021/11/26 12:38:44;;;;;;;;;;;;;;;8.49;100.00;96466.38;5059144;28;20018;-76
2021/11/26 12:41:14;;;;;;;;;;;;;;;8.35;100.00;96456.69;5059308;28;19925;-77
2021/11/26 12:43:46;;;;;;;;;;;;;;;8.23;100.00;96443.78;5056971;28;19924;-77
2021/11/26 12:46:22;;;;;;;;;;;;;;;7.98;100.00;96438.59;5042831;28;19967;-77
2021/11/26 12:49:06;;;;;;;;;;;;;;;8.15;100.00;96448.09;5067285;28;20344;-77
2021/11/26 12:51:35;;;;;;;;;;;;;;;7.83;100.00;96465.50;5073632;28;20018;-76
2021/11/26 12:54:06;;;;;;;;;;;;;;;7.86;100.00;96459.00;5036969;28;20023;-76
2021/11/26 12:56:33;;;;;;;;;;;;;;;7.73;100.00;96466.00;5056259;28;19961;-76
2021/11/26 12:59:00;;;;;;;;;;;;;;;7.82;100.00;96469.53;5075365;28;19960;-77
2021/11/26 13:01:31;;;;;;;;;;;;;;;7.63;100.00;96459.69;5092683;28;19932;-76
2021/11/26 13:03:58;;;;;;;;;;;;;;;7.77;100.00;96444.38;5092764;28;19986;-76
2021/11/26 13:06:30;;;;;;;;;;;;;;;7.77;100.00;96436.81;5076154;28;20427;-76
2021/11/26 13:08:59;;;;;;;;;;;;;;;8.06;100.00;96434.25;5075671;28;19928;-77